Darstellungsparameter: Aktuell verwendete Einstellungen:
Skalierung der Graphiken ... ?
xyx+y,   Skalierungsfaktor:      Skalierung: Modus: x, Faktor: 1
Darstellungszeitraum ... ?
Vom - - bis: - -   Zeitraum: 09.05.2021 - 09.05.2021
Min/Max/Avg-Anzeige ... ?
Zeige MMA aktuell
Zeige MMA Monat
Zeige MMA alles
Zeige --A aktuell
Zeige --A Monat
Zeige --A alles
Keine MMA-Anzeige
MMA:
Minimum Maximum Average (ber die Originaldaten)
MMA-Basis: 27.05.2020 - 29.06.2020
Quicknavigation für Darstellung... ?
Tage:      1T, 2T, 3T, 5T -1T -2T -3T -5T +1T +2T +3T +5T
Wochen: 1W, 2W, 3W -1W -2W -3W +1W +2W +3W
Monate: 1M, 3M, 6M -1M -3M -6M +1M +3M +6M
Jahre:    1J, 3J, 5J, 10J -1J -3J -5J -10J +1J +3J +5J +10J
Nutze für die Darstellung ... ?
Originaldaten oder Mittelwerte auf ...
Stundenbasis Tagesbasis Wochenbasis
Monatsbasis Jahresbasis      Datenbasis: Original-Daten
Darstellen als:
Statistik (Auto) Statistik J:M      Darstellung:

Der gewünschte Datumsbereich war nicht gültig/verfügbar und wurde korrigiert....
Das angegebene Enddatum (05.07.2030 23:59:59) liegt in der Zukunft.
Das angegebene Startdatum (05.01.2030 00:00:00) liegt in der Zukunft.


Zur Graphik,    zurück zur Übersicht aller Sensoren.
 
Tabellarische Datenbersicht: ?
 
Sensor: Nr:Datum:Temp:Abs-Feuchte:Windchill:Wind:
Aussen-T/F 1 09-05-2021 02:00:00 9.6 C 8.06 g/m*3 9.6 C 0 km/h
2 09-05-2021 02:05:00 9.6 C 8.06 g/m*3 9.6 C 0 km/h
3 09-05-2021 02:10:00 9.5 C 8.01 g/m*3 9.5 C 0 km/h
4 09-05-2021 02:15:00 9.4 C 8.05 g/m*3 9.4 C 0 km/h
5 09-05-2021 02:20:00 9.3 C 8 g/m*3 9.3 C 0 km/h
6 09-05-2021 02:25:00 9.3 C 8 g/m*3 9.3 C 0 km/h
7 09-05-2021 02:30:00 9.2 C 7.95 g/m*3 9.2 C 0 km/h
8 09-05-2021 02:35:00 9.2 C 7.95 g/m*3 9.2 C 0 km/h
9 09-05-2021 02:40:00 9.2 C 7.95 g/m*3 9.2 C 0 km/h
10 09-05-2021 02:45:00 9.1 C 7.99 g/m*3 9.1 C 1.6 km/h
11 09-05-2021 02:50:00 9.1 C 7.99 g/m*3 9.1 C 0 km/h
12 09-05-2021 02:55:00 9 C 7.93 g/m*3 9 C 0 km/h
13 09-05-2021 03:00:00 8.9 C 7.88 g/m*3 8.9 C 0 km/h
14 09-05-2021 03:05:00 8.9 C 7.88 g/m*3 8.9 C 0 km/h
15 09-05-2021 03:10:00 8.8 C 7.83 g/m*3 8.8 C 0 km/h
16 09-05-2021 03:15:00 8.8 C 7.83 g/m*3 8.8 C 0 km/h
17 09-05-2021 03:20:00 8.7 C 7.87 g/m*3 8.7 C 0 km/h
18 09-05-2021 03:25:00 8.7 C 7.87 g/m*3 8.7 C 0 km/h
19 09-05-2021 03:30:00 8.7 C 7.87 g/m*3 8.7 C 0 km/h
20 09-05-2021 03:35:00 8.7 C 7.87 g/m*3 8.7 C 0 km/h
21 09-05-2021 03:40:00 8.7 C 7.87 g/m*3 8.7 C 0 km/h
22 09-05-2021 03:45:00 8.6 C 7.82 g/m*3 8.6 C 0 km/h
23 09-05-2021 03:50:00 8.6 C 7.82 g/m*3 8.6 C 0 km/h
24 09-05-2021 03:55:00 8.5 C 7.77 g/m*3 8.5 C 0 km/h
25 09-05-2021 04:00:00 8.4 C 7.72 g/m*3 8.4 C 0 km/h
Sensor: Nr:Datum:Temp:Abs-Feuchte:Windchill:Wind:
Aussen-T/F 26 09-05-2021 04:05:00 8.4 C 7.72 g/m*3 8.4 C 0 km/h
27 09-05-2021 04:10:00 8.3 C 7.67 g/m*3 8.3 C 0 km/h
28 09-05-2021 04:15:00 8.3 C 7.67 g/m*3 8.3 C 0 km/h
29 09-05-2021 04:20:00 8.2 C 7.62 g/m*3 8.2 C 0 km/h
30 09-05-2021 04:25:00 8.1 C 7.57 g/m*3 8.1 C 0 km/h
31 09-05-2021 04:30:00 8.1 C 7.57 g/m*3 8.1 C 0 km/h
32 09-05-2021 04:35:00 8.1 C 7.66 g/m*3 8.1 C 0 km/h
33 09-05-2021 04:40:00 8 C 7.61 g/m*3 8 C 0 km/h
34 09-05-2021 04:45:00 8 C 7.61 g/m*3 8 C 0 km/h
35 09-05-2021 04:50:00 8 C 7.61 g/m*3 8 C 0 km/h
36 09-05-2021 04:55:00 8 C 7.61 g/m*3 8 C 0 km/h
37 09-05-2021 05:00:00 7.9 C 7.56 g/m*3 7.9 C 0 km/h
38 09-05-2021 05:05:00 7.9 C 7.56 g/m*3 7.9 C 0 km/h
39 09-05-2021 05:10:00 7.9 C 7.64 g/m*3 7.9 C 0 km/h
40 09-05-2021 05:15:00 8 C 7.69 g/m*3 8 C 0 km/h
41 09-05-2021 05:20:00 8 C 7.69 g/m*3 8 C 0 km/h
42 09-05-2021 05:25:00 7.9 C 7.64 g/m*3 7.9 C 0 km/h
43 09-05-2021 05:30:00 7.9 C 7.56 g/m*3 7.9 C 0 km/h
44 09-05-2021 05:35:00 7.8 C 7.51 g/m*3 7.8 C 0 km/h
45 09-05-2021 05:40:00 7.7 C 7.46 g/m*3 7.7 C 0 km/h
46 09-05-2021 05:45:00 7.6 C 7.41 g/m*3 7.6 C 0 km/h
47 09-05-2021 05:50:00 7.5 C 7.44 g/m*3 7.5 C 0 km/h
48 09-05-2021 05:55:00 7.5 C 7.44 g/m*3 7.5 C 0 km/h
49 09-05-2021 06:00:00 7.4 C 7.4 g/m*3 7.4 C 0 km/h
50 09-05-2021 06:05:00 7.4 C 7.4 g/m*3 7.4 C 0 km/h
Sensor: Nr:Datum:Temp:Abs-Feuchte:Windchill:Wind:
Aussen-T/F 51 09-05-2021 06:10:00 7.4 C 7.4 g/m*3 7.4 C 0 km/h
52 09-05-2021 06:15:00 7.4 C 7.4 g/m*3 7.4 C 0 km/h
53 09-05-2021 06:20:00 7.4 C 7.4 g/m*3 7.4 C 0 km/h
54 09-05-2021 06:25:00 7.4 C 7.4 g/m*3 7.4 C 0 km/h
55 09-05-2021 06:30:00 7.5 C 7.52 g/m*3 7.5 C 0 km/h
56 09-05-2021 06:35:00 7.6 C 7.57 g/m*3 7.6 C 0 km/h
57 09-05-2021 06:40:00 7.6 C 7.57 g/m*3 7.6 C 0 km/h
58 09-05-2021 06:45:00 7.7 C 7.62 g/m*3 7.7 C 0 km/h
59 09-05-2021 06:50:00 7.7 C 7.62 g/m*3 7.7 C 0 km/h
60 09-05-2021 06:55:00 7.8 C 7.67 g/m*3 7.8 C 0 km/h
61 09-05-2021 07:00:00 7.9 C 7.72 g/m*3 7.9 C 0 km/h
62 09-05-2021 07:05:00 8.1 C 7.9 g/m*3 8.1 C 0 km/h
63 09-05-2021 07:10:00 8.2 C 7.87 g/m*3 8.2 C 0 km/h
64 09-05-2021 07:15:00 8.3 C 8.01 g/m*3 8.3 C 0 km/h
65 09-05-2021 07:20:00 8.4 C 8.06 g/m*3 8.4 C 0 km/h
66 09-05-2021 07:25:00 8.5 C 8.03 g/m*3 8.5 C 0 km/h
67 09-05-2021 07:30:00 8.6 C 8.16 g/m*3 8.6 C 0 km/h
68 09-05-2021 07:35:00 8.7 C 8.13 g/m*3 8.7 C 0 km/h
69 09-05-2021 07:40:00 8.8 C 8.18 g/m*3 8.8 C 0 km/h
70 09-05-2021 07:45:00 8.8 C 8.18 g/m*3 8.8 C 0 km/h
71 09-05-2021 07:50:00 8.9 C 8.32 g/m*3 8.9 C 0 km/h
72 09-05-2021 07:55:00 9.1 C 8.43 g/m*3 9.1 C 0 km/h
73 09-05-2021 08:00:00 9.2 C 8.48 g/m*3 9.2 C 0 km/h
74 09-05-2021 08:05:00 9.3 C 8.54 g/m*3 9.3 C 0 km/h
75 09-05-2021 08:10:00 9.4 C 8.59 g/m*3 9.4 C 0 km/h
Sensor: Nr:Datum:Temp:Abs-Feuchte:Windchill:Wind:
Aussen-T/F 76 09-05-2021 08:15:00 9.6 C 8.7 g/m*3 9.6 C 0 km/h
77 09-05-2021 08:20:00 9.7 C 8.76 g/m*3 9.7 C 0 km/h
78 09-05-2021 08:25:00 9.8 C 8.72 g/m*3 9.8 C 0 km/h
79 09-05-2021 08:30:00 9.9 C 8.78 g/m*3 9.9 C 0 km/h
80 09-05-2021 08:35:00 10.1 C 8.98 g/m*3 10.1 C 0 km/h
81 09-05-2021 08:40:00 10.2 C 8.95 g/m*3 10.2 C 0 km/h
82 09-05-2021 08:45:00 10.3 C 9 g/m*3 10.3 C 0 km/h
83 09-05-2021 08:50:00 10.4 C 9.06 g/m*3 10.4 C 0 km/h
84 09-05-2021 08:55:00 10.6 C 9.17 g/m*3 10.6 C 0 km/h
85 09-05-2021 09:00:00 10.7 C 9.23 g/m*3 10.7 C 0 km/h
86 09-05-2021 09:05:00 10.9 C 9.35 g/m*3 10.9 C 0 km/h
87 09-05-2021 09:10:00 11.1 C 9.47 g/m*3 11.1 C 0 km/h
88 09-05-2021 09:15:00 11.2 C 9.53 g/m*3 11.2 C 0 km/h
89 09-05-2021 09:20:00 11.4 C 9.55 g/m*3 11.4 C 0 km/h
90 09-05-2021 09:25:00 11.7 C 9.73 g/m*3 11.7 C 0 km/h
91 09-05-2021 09:30:00 11.9 C 9.85 g/m*3 11.9 C 0 km/h
92 09-05-2021 09:35:00 12.2 C 10.04 g/m*3 12.2 C 0 km/h
93 09-05-2021 09:40:00 12.6 C 10.18 g/m*3 12.6 C 1.6 km/h
94 09-05-2021 09:45:00 12.9 C 10.26 g/m*3 12.9 C 1.6 km/h
95 09-05-2021 09:50:00 13.3 C 10.51 g/m*3 13.3 C 0 km/h
96 09-05-2021 09:55:00 13.8 C 10.72 g/m*3 13.8 C 1.6 km/h
97 09-05-2021 10:00:00 14.3 C 10.81 g/m*3 14.3 C 4.8 km/h
98 09-05-2021 10:05:00 14.9 C 11.09 g/m*3 14.9 C 3.2 km/h
99 09-05-2021 10:10:00 15.6 C 11.3 g/m*3 15.6 C 3.2 km/h
100 09-05-2021 10:15:00 16.3 C 11.38 g/m*3 16.3 C 8.1 km/h
Sensor: Nr:Datum:Temp:Abs-Feuchte:Windchill:Wind:
Aussen-T/F 101 09-05-2021 10:20:00 17.6 C 11.1 g/m*3 17.6 C 8.1 km/h
102 09-05-2021 10:25:00 18.5 C 11.71 g/m*3 18.5 C 8.1 km/h
103 09-05-2021 10:30:00 19.2 C 11.38 g/m*3 19.2 C 8.1 km/h
104 09-05-2021 10:35:00 19.7 C 11.55 g/m*3 19.7 C 6.4 km/h
105 09-05-2021 10:40:00 20.1 C 11.13 g/m*3 20.1 C 8.1 km/h
106 09-05-2021 10:45:00 20.6 C 11.63 g/m*3 20.6 C 6.4 km/h
107 09-05-2021 10:50:00 20.9 C 11.47 g/m*3 20.9 C 9.7 km/h
108 09-05-2021 10:55:00 21.3 C 11.37 g/m*3 21.3 C 12.9 km/h
109 09-05-2021 11:00:00 21.6 C 11.19 g/m*3 21.6 C 6.4 km/h
110 09-05-2021 11:05:00 21.7 C 11.06 g/m*3 21.7 C 11.3 km/h
111 09-05-2021 11:10:00 21.8 C 11.13 g/m*3 21.8 C 14.5 km/h
112 09-05-2021 11:15:00 21.9 C 11.19 g/m*3 21.9 C 16.1 km/h
113 09-05-2021 11:20:00 22.2 C 11.19 g/m*3 22.2 C 6.4 km/h
114 09-05-2021 11:25:00 22.4 C 11.12 g/m*3 22.4 C 11.3 km/h
115 09-05-2021 11:30:00 22.7 C 11.52 g/m*3 22.7 C 9.7 km/h
116 09-05-2021 11:35:00 22.9 C 11.24 g/m*3 22.9 C 9.7 km/h
117 09-05-2021 11:40:00 23.1 C 11.16 g/m*3 23.1 C 9.7 km/h
118 09-05-2021 11:45:00 23.2 C 11.02 g/m*3 23.2 C 14.5 km/h
119 09-05-2021 11:50:00 23.1 C 11.16 g/m*3 23.1 C 8.1 km/h
120 09-05-2021 11:55:00 23.2 C 11.23 g/m*3 23.2 C 4.8 km/h
121 09-05-2021 12:00:00 23.4 C 11.14 g/m*3 23.4 C 9.7 km/h
122 09-05-2021 12:05:00 23.6 C 10.85 g/m*3 23.6 C 9.7 km/h
123 09-05-2021 12:10:00 23.8 C 11.19 g/m*3 23.8 C 6.4 km/h
124 09-05-2021 12:15:00 23.9 C 10.82 g/m*3 23.9 C 17.7 km/h
125 09-05-2021 12:20:00 24.1 C 11.16 g/m*3 24.1 C 11.3 km/h
Sensor: Nr:Datum:Temp:Abs-Feuchte:Windchill:Wind:
Aussen-T/F 126 09-05-2021 12:25:00 24.2 C 11 g/m*3 24.2 C 12.9 km/h
127 09-05-2021 12:30:00 24.4 C 10.9 g/m*3 24.4 C 9.7 km/h
128 09-05-2021 12:35:00 24.5 C 11.41 g/m*3 24.5 C 9.7 km/h
129 09-05-2021 12:40:00 24.6 C 11.48 g/m*3 24.6 C 12.9 km/h
130 09-05-2021 12:45:00 24.6 C 11.25 g/m*3 24.6 C 17.7 km/h
131 09-05-2021 12:50:00 24.6 C 11.7 g/m*3 24.6 C 8.1 km/h
132 09-05-2021 12:55:00 24.7 C 11.32 g/m*3 24.7 C 16.1 km/h
133 09-05-2021 13:00:00 24.8 C 11.15 g/m*3 24.8 C 11.3 km/h
134 09-05-2021 13:05:00 24.9 C 11.45 g/m*3 24.9 C 11.3 km/h
135 09-05-2021 13:10:00 25.1 C 10.88 g/m*3 25.1 C 14.5 km/h
136 09-05-2021 13:15:00 25.3 C 11.47 g/m*3 25.3 C 11.3 km/h
137 09-05-2021 13:20:00 25.4 C 11.3 g/m*3 25.4 C 9.7 km/h
138 09-05-2021 13:25:00 25.6 C 11.19 g/m*3 25.6 C 8.1 km/h
139 09-05-2021 13:30:00 25.7 C 11.25 g/m*3 25.7 C 11.3 km/h
140 09-05-2021 13:35:00 25.9 C 11.38 g/m*3 25.9 C 11.3 km/h
141 09-05-2021 13:40:00 26.1 C 11.75 g/m*3 26.1 C 14.5 km/h
142 09-05-2021 13:45:00 26.3 C 11.39 g/m*3 26.3 C 12.9 km/h
143 09-05-2021 13:50:00 26.4 C 10.7 g/m*3 26.4 C 25.7 km/h
144 09-05-2021 13:55:00 26.6 C 10.57 g/m*3 26.6 C 25.7 km/h
145 09-05-2021 14:00:00 26.7 C 10.63 g/m*3 26.7 C 8.1 km/h
146 09-05-2021 14:05:00 26.8 C 10.44 g/m*3 26.8 C 14.5 km/h
147 09-05-2021 14:10:00 26.8 C 10.44 g/m*3 26.8 C 19.3 km/h
148 09-05-2021 14:15:00 26.9 C 10.75 g/m*3 26.9 C 9.7 km/h
149 09-05-2021 14:20:00 27 C 10.55 g/m*3 27 C 12.9 km/h
150 09-05-2021 14:25:00 27.1 C 10.35 g/m*3 27.1 C 14.5 km/h
Sensor: Nr:Datum:Temp:Abs-Feuchte:Windchill:Wind:
Aussen-T/F 151 09-05-2021 14:30:00 27.2 C 10.67 g/m*3 27.2 C 9.7 km/h
152 09-05-2021 14:35:00 27.3 C 10.73 g/m*3 27.3 C 17.7 km/h
153 09-05-2021 14:40:00 27.5 C 10.58 g/m*3 27.5 C 14.5 km/h
154 09-05-2021 14:45:00 27.7 C 10.16 g/m*3 27.7 C 11.3 km/h
155 09-05-2021 14:50:00 27.7 C 10.7 g/m*3 27.7 C 11.3 km/h
156 09-05-2021 14:55:00 27.7 C 10.97 g/m*3 27.7 C 12.9 km/h
157 09-05-2021 15:00:00 27.8 C 10.49 g/m*3 27.8 C 11.3 km/h
158 09-05-2021 15:05:00 27.9 C 10.55 g/m*3 27.9 C 16.1 km/h
159 09-05-2021 15:10:00 27.9 C 10.55 g/m*3 27.9 C 12.9 km/h
160 09-05-2021 15:15:00 28 C 10.33 g/m*3 28 C 22.5 km/h
161 09-05-2021 15:20:00 28.1 C 10.39 g/m*3 28.1 C 29 km/h
162 09-05-2021 15:25:00 28.3 C 10.51 g/m*3 28.3 C 11.3 km/h
163 09-05-2021 15:30:00 28.6 C 10.96 g/m*3 28.6 C 27.4 km/h
164 09-05-2021 15:35:00 28.8 C 10.51 g/m*3 28.8 C 19.3 km/h
165 09-05-2021 15:40:00 28.9 C 10.57 g/m*3 28.9 C 16.1 km/h
166 09-05-2021 15:45:00 29.1 C 10.11 g/m*3 29.1 C 17.7 km/h
167 09-05-2021 15:50:00 29.1 C 10.11 g/m*3 29.1 C 16.1 km/h
168 09-05-2021 15:55:00 28.9 C 10.28 g/m*3 28.9 C 16.1 km/h
169 09-05-2021 16:00:00 28.8 C 10.8 g/m*3 28.8 C 14.5 km/h
170 09-05-2021 16:05:00 28.9 C 11.14 g/m*3 28.9 C 12.9 km/h
171 09-05-2021 16:10:00 29.2 C 11.03 g/m*3 29.2 C 22.5 km/h
172 09-05-2021 16:15:00 29.3 C 10.8 g/m*3 29.3 C 19.3 km/h
173 09-05-2021 16:20:00 29.3 C 10.51 g/m*3 29.3 C 9.7 km/h
174 09-05-2021 16:25:00 29.2 C 10.16 g/m*3 29.2 C 9.7 km/h
175 09-05-2021 16:30:00 29.2 C 10.16 g/m*3 29.2 C 12.9 km/h
Sensor: Nr:Datum:Temp:Abs-Feuchte:Windchill:Wind:
Aussen-T/F 176 09-05-2021 16:35:00 29.2 C 10.74 g/m*3 29.2 C 16.1 km/h
177 09-05-2021 16:40:00 29.2 C 10.45 g/m*3 29.2 C 16.1 km/h
178 09-05-2021 16:45:00 29.2 C 10.16 g/m*3 29.2 C 16.1 km/h
179 09-05-2021 16:50:00 29.1 C 10.69 g/m*3 29.1 C 16.1 km/h
180 09-05-2021 16:55:00 29.2 C 11.03 g/m*3 29.2 C 8.1 km/h
181 09-05-2021 17:00:00 29.3 C 10.8 g/m*3 29.3 C 11.3 km/h
182 09-05-2021 17:05:00 29.4 C 10.57 g/m*3 29.4 C 19.3 km/h
183 09-05-2021 17:10:00 29.4 C 10.27 g/m*3 29.4 C 19.3 km/h
184 09-05-2021 17:15:00 29.4 C 9.98 g/m*3 29.4 C 14.5 km/h
185 09-05-2021 17:20:00 29.4 C 10.57 g/m*3 29.4 C 9.7 km/h
186 09-05-2021 17:25:00 29.6 C 10.68 g/m*3 29.6 C 11.3 km/h
187 09-05-2021 17:30:00 29.6 C 10.09 g/m*3 29.6 C 14.5 km/h
188 09-05-2021 17:35:00 29.7 C 10.44 g/m*3 29.7 C 11.3 km/h

Legende:
   Min
   Max


Maximal/Minimal-Werte vom 27.05.2020 - 29.06.2020

Sensor Min Max Avg
Temp
(Aussen-T/F)
6.7 °C
29-05-2020  05:40:00
32.1 °C
26-06-2020  16:40:00
17.58 °C

Die Daten stammen von einer Davis Vantage Pro 2 Wetter-Station und werden unter Linux mit der Software wview2wettercgi und aufbereitet. Alle Angaben erfolgen ohne Gewähr für ihre Vollständigkeit oder Richtigkeit.
Kontakt: Rainer Krienke krienke@uni-koblenz.de . Meine Webseiten an der Uni Koblenz oder privat.
Version: $Revision: 0.78 $